Strona główna
METAR-TAF:

METAR-TAF

Lotnisko :

Port lotniczy Kair

Kair, Egipt

Szerokość geograficzna: 30-08N, Długość geograficzna: 031-24E, wysokość: 64 m

Aktualna obserwacja pogody

Raport powstał 27 minut temu, godzina 03:30 UTC
Wiatr 4 kt od wschodnio-północny wschód
Temperatura 20°C
Wilgotność 64%
Ciśnienie 1012 hPa
Widzialność 10 km lub więcej
Brak chmur poniżej 1500 m i brak chmur cumulonimbus

METAR: HECA 120330Z 06004KT CAVOK 20/13 Q1012 NOSIG

czas: 05:57 (03:57 UTC)

Prognoza

Raport powstał 4 godziny i 57 minut temu, godzina 23:00 UTC
Prognoza ważna od 12 godzina 00 UTC do 13 godzina 06 UTC
Wiatr 8 kt od wschodnio-północny wschód
Widzialność: 6000 m
Przejściowo
od 12 godzina 00 UTC do 12 godzina 07 UTC
Wiatr 3 kt z kierunków zmiennych
Prawdopodobieństwo 40% :
Przejściowo
od 12 godzina 02 UTC do 12 godzina 05 UTC
Widzialność: 1000 m

TAF: HECA 112300Z 1200/1306 06008KT 6000 NSC TEMPO 1200/1207 VRB03KT 3000BR PROB40 TEMPO 1202/1205 1000

Obserwacja i prognoza pogody dla ponad 4000 lotnisk (raport METAR i TAF).

Dostępne stacje oznaczono żółtymi i czerwonymi punktami na mapie.

Najedź kursorem aby zobaczyć nazwę stacji.

Kliknij aby zobaczyć obserwacje i prognozy pogody.

Aby zmienić mapę: kliknij na zielony przycisk z czarnym krzyżykiem, aby powiększyć; na zielony przycisk z myślnikiem, aby pomniejszyć; na zielone strzałki, aby przejść do map sąsiednich.


METAR-TAF: